createdAt,value
2019-05-09T00:00:23.209Z,2.20
2019-05-09T00:02:54.036Z,1.40
2019-05-09T00:05:25.461Z,1.53
2019-05-09T00:07:55.475Z,1.10
2019-05-09T00:10:38.576Z,1.50
2019-05-09T00:12:57.478Z,1.03
2019-05-09T00:15:27.474Z,1.50
2019-05-09T00:17:57.717Z,1.70
2019-05-09T00:20:46.580Z,1.40
2019-05-09T00:23:16.596Z,1.43
2019-05-09T00:25:46.545Z,4.07
2019-05-09T00:28:16.618Z,1.50
2019-05-09T00:31:03.572Z,1.73
2019-05-09T00:33:34.531Z,1.10
2019-05-09T00:36:04.748Z,1.20
2019-05-09T00:38:38.977Z,1.63
2019-05-09T00:41:08.953Z,1.40
2019-05-09T00:43:40.202Z,1.30
2019-05-09T00:46:29.065Z,1.20
2019-05-09T00:49:05.088Z,1.50
2019-05-09T00:51:35.190Z,1.50
2019-05-09T00:54:05.643Z,1.40
2019-05-09T00:56:36.181Z,1.87
2019-05-09T00:59:06.207Z,1.90
2019-05-09T01:01:36.142Z,1.33
2019-05-09T01:04:06.418Z,2.07
2019-05-09T01:06:36.335Z,1.50
2019-05-09T01:09:07.951Z,1.73
2019-05-09T01:11:38.030Z,1.40
2019-05-09T01:14:08.119Z,1.40
2019-05-09T01:16:38.598Z,1.40
2019-05-09T01:19:08.633Z,1.87
2019-05-09T01:21:38.626Z,1.93
2019-05-09T01:24:08.972Z,1.63
2019-05-09T01:26:39.013Z,2.03
2019-05-09T01:29:09.076Z,3.40
2019-05-09T01:31:39.005Z,1.60
2019-05-09T01:34:30.218Z,1.50
2019-05-09T01:37:07.431Z,3.60
2019-05-09T01:39:38.028Z,1.20
2019-05-09T01:42:08.036Z,1.40
2019-05-09T01:44:38.032Z,1.43
2019-05-09T01:47:08.072Z,1.33
2019-05-09T01:49:38.059Z,1.30
2019-05-09T01:52:07.998Z,1.27
2019-05-09T01:54:39.612Z,1.57
2019-05-09T01:57:09.615Z,1.50
2019-05-09T01:59:39.868Z,1.43
2019-05-09T02:02:10.127Z,1.60
2019-05-09T02:04:40.156Z,1.63
2019-05-09T02:07:10.234Z,1.50
2019-05-09T02:09:40.262Z,1.70
2019-05-09T02:12:10.588Z,1.57
2019-05-09T02:14:50.757Z,1.60
2019-05-09T02:17:35.262Z,3.00
2019-05-09T02:20:05.867Z,2.23
2019-05-09T02:22:36.331Z,1.73
2019-05-09T02:25:10.920Z,1.50
2019-05-09T02:27:40.959Z,2.00
2019-05-09T02:30:15.148Z,1.30
2019-05-09T02:32:44.956Z,1.30
2019-05-09T02:35:15.483Z,1.30
2019-05-09T02:37:45.400Z,2.07
2019-05-09T02:40:18.765Z,1.20
2019-05-09T02:42:49.018Z,1.00
2019-05-09T02:45:19.698Z,1.30
2019-05-09T02:47:49.693Z,1.30
2019-05-09T02:50:19.907Z,1.57
2019-05-09T02:52:49.817Z,2.10
2019-05-09T02:55:20.391Z,2.03
2019-05-09T02:57:52.226Z,2.10
2019-05-09T03:00:29.678Z,1.57
2019-05-09T03:03:10.163Z,1.40
2019-05-09T03:05:40.487Z,2.07
2019-05-09T03:08:10.569Z,1.40
2019-05-09T03:10:40.533Z,1.40
2019-05-09T03:13:10.553Z,1.17
2019-05-09T03:15:40.886Z,1.80
2019-05-09T03:18:10.936Z,1.50
2019-05-09T03:20:49.297Z,2.50
2019-05-09T03:23:19.597Z,3.60
2019-05-09T03:25:49.606Z,2.30
2019-05-09T03:28:28.744Z,1.70
2019-05-09T03:30:59.881Z,2.50
2019-05-09T03:33:35.242Z,2.03
2019-05-09T03:36:01.519Z,2.47
2019-05-09T03:38:31.617Z,3.70
2019-05-09T03:41:01.581Z,2.80
2019-05-09T03:43:31.528Z,2.13
2019-05-09T03:46:08.570Z,2.27
2019-05-09T03:48:43.563Z,1.63
2019-05-09T03:51:13.619Z,2.50
2019-05-09T03:53:43.620Z,2.40
2019-05-09T03:56:18.157Z,2.80
2019-05-09T03:58:48.266Z,2.10
2019-05-09T04:01:18.267Z,2.67
2019-05-09T04:03:48.274Z,2.23
2019-05-09T04:06:18.582Z,3.00
2019-05-09T04:08:48.807Z,3.43
2019-05-09T04:11:18.756Z,4.17
2019-05-09T04:13:54.561Z,3.67
2019-05-09T04:16:24.768Z,4.50
2019-05-09T04:18:54.691Z,3.30
2019-05-09T04:21:24.805Z,4.67
2019-05-09T04:23:55.038Z,4.20
2019-05-09T04:26:48.755Z,3.63
2019-05-09T04:29:18.672Z,4.40
2019-05-09T04:31:48.677Z,3.37
2019-05-09T04:34:18.893Z,3.10
2019-05-09T04:36:48.860Z,4.37
2019-05-09T04:39:23.377Z,3.97
2019-05-09T04:41:50.569Z,3.50
2019-05-09T04:44:37.366Z,4.20
2019-05-09T04:47:08.769Z,3.40
2019-05-09T04:49:40.958Z,2.50
2019-05-09T04:52:10.553Z,2.73
2019-05-09T04:54:40.673Z,2.80
2019-05-09T04:57:10.729Z,2.83
2019-05-09T04:59:40.739Z,2.80
2019-05-09T05:02:20.755Z,2.40
2019-05-09T05:04:50.703Z,3.10
2019-05-09T05:07:20.928Z,3.10
2019-05-09T05:09:50.877Z,3.83
2019-05-09T05:12:20.917Z,2.33
2019-05-09T05:14:51.116Z,2.60
2019-05-09T05:17:21.101Z,1.93
2019-05-09T05:19:51.397Z,2.20
2019-05-09T05:22:28.341Z,2.27
2019-05-09T05:25:01.225Z,2.60
2019-05-09T05:27:31.263Z,3.03
2019-05-09T05:30:01.208Z,2.47
2019-05-09T05:32:38.581Z,2.10
2019-05-09T05:35:21.443Z,2.60
2019-05-09T05:37:51.541Z,2.00
2019-05-09T05:40:21.526Z,2.10
2019-05-09T05:42:51.506Z,2.00
2019-05-09T05:45:21.697Z,2.93
2019-05-09T05:47:57.632Z,2.00
2019-05-09T05:50:28.207Z,2.70
2019-05-09T05:52:58.458Z,3.40
2019-05-09T05:55:28.439Z,2.50
2019-05-09T05:57:58.552Z,3.23
2019-05-09T06:00:28.755Z,3.10
2019-05-09T06:02:58.961Z,2.50
2019-05-09T06:05:28.917Z,3.00
2019-05-09T06:07:58.874Z,3.83
2019-05-09T06:10:29.144Z,2.40
2019-05-09T06:12:59.181Z,3.53
2019-05-09T06:15:29.537Z,2.77
2019-05-09T06:17:59.577Z,3.10
2019-05-09T06:20:29.512Z,2.70
2019-05-09T06:22:59.455Z,2.20
2019-05-09T06:25:30.792Z,2.33
2019-05-09T06:28:00.874Z,2.27
2019-05-09T06:30:31.405Z,2.27
2019-05-09T06:33:04.715Z,2.30
2019-05-09T06:35:33.152Z,2.10
2019-05-09T06:38:03.348Z,2.23
2019-05-09T06:40:33.550Z,2.83
2019-05-09T06:43:18.393Z,1.97
2019-05-09T06:46:07.909Z,1.93
2019-05-09T06:48:38.027Z,2.23
2019-05-09T06:51:08.150Z,2.57
2019-05-09T06:53:38.196Z,2.40
2019-05-09T06:56:08.351Z,2.80
2019-05-09T06:58:38.566Z,2.80
2019-05-09T07:01:28.542Z,2.67
2019-05-09T07:04:04.647Z,2.67
2019-05-09T07:06:38.305Z,2.20
2019-05-09T07:09:17.498Z,2.27
2019-05-09T07:11:48.771Z,2.27
2019-05-09T07:14:40.682Z,2.93
2019-05-09T07:17:08.352Z,1.80
2019-05-09T07:19:38.661Z,1.60
2019-05-09T07:22:39.015Z,1.87
2019-05-09T07:25:18.646Z,1.43
2019-05-09T07:27:48.628Z,1.60
2019-05-09T07:30:34.018Z,1.40
2019-05-09T07:33:22.878Z,1.53
2019-05-09T07:35:52.832Z,1.70
2019-05-09T07:38:30.075Z,1.60
2019-05-09T07:41:00.635Z,1.30
2019-05-09T07:43:30.745Z,1.73
2019-05-09T07:46:09.927Z,1.80
2019-05-09T07:48:40.219Z,1.00
2019-05-09T07:51:10.320Z,1.50
2019-05-09T07:53:40.243Z,1.33
2019-05-09T07:56:10.345Z,1.77
2019-05-09T07:58:40.369Z,1.33
2019-05-09T08:01:10.366Z,1.50
2019-05-09T08:03:40.345Z,2.33
2019-05-09T08:06:10.386Z,1.70
2019-05-09T08:08:40.310Z,1.67
2019-05-09T08:11:10.353Z,1.50
2019-05-09T08:13:40.290Z,1.57
2019-05-09T08:16:14.564Z,1.30
2019-05-09T08:18:42.075Z,1.40
2019-05-09T08:21:12.170Z,1.43
2019-05-09T08:23:42.107Z,1.47
2019-05-09T08:26:12.151Z,1.63
2019-05-09T08:28:42.094Z,1.53
2019-05-09T08:31:12.116Z,2.10
2019-05-09T08:33:42.146Z,1.70
2019-05-09T08:36:12.578Z,1.40
2019-05-09T08:38:42.744Z,1.60
2019-05-09T08:41:18.646Z,1.60
2019-05-09T08:43:48.525Z,1.50
2019-05-09T08:46:18.667Z,1.27
2019-05-09T08:48:48.741Z,1.30
2019-05-09T08:51:25.097Z,1.40
2019-05-09T08:53:57.633Z,1.43
2019-05-09T08:56:28.359Z,1.33
2019-05-09T08:59:02.002Z,1.13
2019-05-09T09:01:50.165Z,1.10
2019-05-09T09:04:02.075Z,1.40
2019-05-09T09:06:32.270Z,1.07
2019-05-09T09:09:02.171Z,1.53
2019-05-09T09:11:32.120Z,1.17
2019-05-09T09:14:02.066Z,1.50
2019-05-09T09:16:31.997Z,1.10
2019-05-09T09:19:02.174Z,1.60
2019-05-09T09:21:32.131Z,1.20
2019-05-09T09:24:02.063Z,1.20
2019-05-09T09:26:31.969Z,1.30
2019-05-09T09:29:01.974Z,2.03
2019-05-09T09:31:31.880Z,1.90
2019-05-09T09:34:01.923Z,1.27
2019-05-09T09:36:31.821Z,1.23
2019-05-09T09:39:03.153Z,1.77
2019-05-09T09:41:33.379Z,1.20
2019-05-09T09:44:03.320Z,1.00
2019-05-09T09:46:33.212Z,1.20
2019-05-09T09:49:03.180Z,1.10
2019-05-09T09:51:33.205Z,1.67
2019-05-09T09:54:03.121Z,1.50
2019-05-09T09:56:33.212Z,1.40
2019-05-09T09:59:18.835Z,1.57
2019-05-09T10:01:49.031Z,1.20
2019-05-09T10:04:23.901Z,1.23
2019-05-09T10:06:53.052Z,1.20
2019-05-09T10:09:22.867Z,1.10
2019-05-09T10:11:52.793Z,1.40
2019-05-09T10:14:29.031Z,1.47
2019-05-09T10:17:15.000Z,1.10
2019-05-09T10:20:01.386Z,1.23
2019-05-09T10:22:31.301Z,1.20
2019-05-09T10:25:01.866Z,1.40
2019-05-09T10:27:31.875Z,1.10
2019-05-09T10:30:01.822Z,1.10
2019-05-09T10:32:31.892Z,1.17
2019-05-09T10:35:01.863Z,1.40
2019-05-09T10:37:31.770Z,1.13
2019-05-09T10:40:03.052Z,1.50
2019-05-09T10:42:39.587Z,1.30
2019-05-09T10:45:24.915Z,0.93
2019-05-09T10:47:54.797Z,1.40
2019-05-09T10:50:24.797Z,1.20
2019-05-09T10:52:54.774Z,2.40
2019-05-09T10:55:24.836Z,1.87
2019-05-09T10:57:54.743Z,1.07
2019-05-09T11:00:24.845Z,1.13
2019-05-09T11:02:54.763Z,0.90
2019-05-09T11:05:25.043Z,1.10
2019-05-09T11:07:55.091Z,0.90
2019-05-09T11:10:29.441Z,0.90
2019-05-09T11:12:58.464Z,2.67
2019-05-09T11:15:28.602Z,0.90
2019-05-09T11:17:58.490Z,1.00
2019-05-09T11:20:28.604Z,1.00
2019-05-09T11:22:58.463Z,1.10
2019-05-09T11:25:28.613Z,1.17
2019-05-09T11:28:10.056Z,1.13
2019-05-09T11:30:30.302Z,1.10
2019-05-09T11:33:00.223Z,1.00
2019-05-09T11:35:30.154Z,0.93
2019-05-09T11:38:00.817Z,1.07
2019-05-09T11:40:30.801Z,1.30
2019-05-09T11:43:00.808Z,1.00
2019-05-09T11:45:30.764Z,0.93
2019-05-09T11:48:00.922Z,0.90
2019-05-09T11:50:30.858Z,1.20
2019-05-09T11:53:00.766Z,0.93
2019-05-09T11:55:36.058Z,1.10
2019-05-09T11:58:02.491Z,0.90
2019-05-09T12:00:32.534Z,1.07
2019-05-09T12:03:02.431Z,0.90
2019-05-09T12:05:32.382Z,1.10
2019-05-09T12:08:02.435Z,0.90
2019-05-09T12:10:32.409Z,2.00
2019-05-09T12:13:02.400Z,1.33
2019-05-09T12:15:32.303Z,0.80
2019-05-09T12:18:07.558Z,0.90
2019-05-09T12:20:34.110Z,1.00
2019-05-09T12:23:03.991Z,0.90
2019-05-09T12:25:34.062Z,1.10
2019-05-09T12:28:04.330Z,1.27
2019-05-09T12:30:34.259Z,1.40
2019-05-09T12:33:04.217Z,0.90
2019-05-09T12:35:34.222Z,1.20
2019-05-09T12:38:04.106Z,1.10
2019-05-09T12:40:34.091Z,0.97
2019-05-09T12:43:04.361Z,1.50
2019-05-09T12:45:34.452Z,1.17
2019-05-09T12:48:10.203Z,0.90
2019-05-09T12:50:38.652Z,1.10
2019-05-09T12:53:08.114Z,1.27
2019-05-09T12:55:38.582Z,1.00
2019-05-09T12:58:12.854Z,1.30
2019-05-09T13:00:43.028Z,1.10
2019-05-09T13:03:12.962Z,1.03
2019-05-09T13:05:42.908Z,1.20
2019-05-09T13:08:12.850Z,1.00
2019-05-09T13:10:42.782Z,1.20
2019-05-09T13:13:12.782Z,1.60
2019-05-09T13:15:50.433Z,1.37
2019-05-09T13:18:25.089Z,0.80
2019-05-09T13:20:52.092Z,1.50
2019-05-09T13:23:22.052Z,1.13
2019-05-09T13:25:52.002Z,1.37
2019-05-09T13:28:22.015Z,1.03
2019-05-09T13:30:51.931Z,1.60
2019-05-09T13:33:21.870Z,1.00
2019-05-09T13:35:51.761Z,1.10
2019-05-09T13:38:22.002Z,1.20
2019-05-09T13:40:53.691Z,1.07
2019-05-09T13:43:23.563Z,1.13
2019-05-09T13:45:53.452Z,3.20
2019-05-09T13:48:32.636Z,1.30
2019-05-09T13:50:57.714Z,1.37
2019-05-09T13:53:28.444Z,1.20
2019-05-09T13:55:58.593Z,1.00
2019-05-09T13:58:28.597Z,1.10
2019-05-09T14:01:02.379Z,1.57
2019-05-09T14:03:30.147Z,1.30
2019-05-09T14:06:00.072Z,1.37
2019-05-09T14:08:30.030Z,1.40
2019-05-09T14:10:59.954Z,1.10
2019-05-09T14:13:29.853Z,1.43
2019-05-09T14:16:15.107Z,1.07
2019-05-09T14:18:31.450Z,1.30
2019-05-09T14:21:01.321Z,1.47
2019-05-09T14:23:35.632Z,1.33
2019-05-09T14:26:02.868Z,1.87
2019-05-09T14:28:32.784Z,1.30
2019-05-09T14:31:02.673Z,1.30
2019-05-09T14:33:33.655Z,1.40
2019-05-09T14:36:03.675Z,1.67
2019-05-09T14:38:33.736Z,1.47
2019-05-09T14:41:03.627Z,1.10
2019-05-09T14:43:33.549Z,1.30
2019-05-09T14:46:03.459Z,1.80
2019-05-09T14:48:33.657Z,1.87
2019-05-09T14:51:03.634Z,1.03
2019-05-09T14:53:33.707Z,1.23
2019-05-09T14:56:03.684Z,1.80
2019-05-09T14:58:35.003Z,1.63
2019-05-09T15:01:08.359Z,1.23
2019-05-09T15:03:38.909Z,1.40
2019-05-09T15:06:09.542Z,1.50
2019-05-09T15:08:39.558Z,0.93
2019-05-09T15:11:10.291Z,1.27
2019-05-09T15:13:40.966Z,1.47
2019-05-09T15:16:10.925Z,1.70
2019-05-09T15:18:41.683Z,1.60
2019-05-09T15:21:11.842Z,1.60
2019-05-09T15:23:41.756Z,1.37
2019-05-09T15:26:11.906Z,1.10
2019-05-09T15:28:41.900Z,1.60
2019-05-09T15:31:11.811Z,1.40
2019-05-09T15:33:41.748Z,1.53
2019-05-09T15:36:11.799Z,3.20
2019-05-09T15:38:41.757Z,1.40
2019-05-09T15:41:12.376Z,1.50
2019-05-09T15:43:42.319Z,1.60
2019-05-09T15:46:43.316Z,1.30
2019-05-09T15:49:13.286Z,1.23
2019-05-09T15:51:43.362Z,1.07
2019-05-09T15:54:13.425Z,1.40
2019-05-09T15:56:44.298Z,1.17
2019-05-09T15:59:14.391Z,1.00
2019-05-09T16:01:44.581Z,1.53
2019-05-09T16:04:14.774Z,1.37
2019-05-09T16:06:49.454Z,1.30
2019-05-09T16:09:17.991Z,1.10
2019-05-09T16:11:48.508Z,1.10
2019-05-09T16:14:18.715Z,1.20
2019-05-09T16:16:48.649Z,0.83
2019-05-09T16:19:18.653Z,1.03
2019-05-09T16:21:48.632Z,1.13
2019-05-09T16:24:19.035Z,0.90
2019-05-09T16:26:49.498Z,0.83
2019-05-09T16:29:19.476Z,1.20
2019-05-09T16:31:49.429Z,0.93
2019-05-09T16:34:19.390Z,1.13
2019-05-09T16:36:49.269Z,0.97
2019-05-09T16:39:19.534Z,0.90
2019-05-09T16:41:49.420Z,1.10
2019-05-09T16:44:19.340Z,0.80
2019-05-09T16:46:49.685Z,1.00
2019-05-09T16:49:20.246Z,0.80
2019-05-09T16:51:50.438Z,0.90
2019-05-09T16:54:22.022Z,1.20
2019-05-09T16:56:51.902Z,1.07
2019-05-09T16:59:21.887Z,0.87
2019-05-09T17:01:52.152Z,1.00
2019-05-09T17:04:22.116Z,0.93
2019-05-09T17:06:52.027Z,1.67
2019-05-09T17:09:22.990Z,1.20
2019-05-09T17:11:53.715Z,1.17
2019-05-09T17:14:23.664Z,1.27
2019-05-09T17:16:53.539Z,1.03
2019-05-09T17:19:24.243Z,1.00
2019-05-09T17:22:15.862Z,0.93
2019-05-09T17:24:48.338Z,1.00
2019-05-09T17:27:19.009Z,1.40
2019-05-09T17:29:49.304Z,0.87
2019-05-09T17:32:20.007Z,1.20
2019-05-09T17:34:50.039Z,1.00
2019-05-09T17:37:19.968Z,1.40
2019-05-09T17:39:50.781Z,1.30
2019-05-09T17:42:20.986Z,0.93
2019-05-09T17:44:50.908Z,1.37
2019-05-09T17:47:20.856Z,1.07
2019-05-09T17:49:51.484Z,1.50
2019-05-09T17:52:21.838Z,1.50
2019-05-09T17:54:51.787Z,1.37
2019-05-09T17:57:21.911Z,1.30
2019-05-09T17:59:51.836Z,1.30
2019-05-09T18:02:21.728Z,1.23
2019-05-09T18:04:52.286Z,1.33
2019-05-09T18:07:22.187Z,1.70
2019-05-09T18:09:52.348Z,1.10
2019-05-09T18:12:22.307Z,1.30
2019-05-09T18:14:52.261Z,1.70
2019-05-09T18:17:22.139Z,1.50
2019-05-09T18:19:52.911Z,1.10
2019-05-09T18:22:23.078Z,1.10
2019-05-09T18:24:53.096Z,1.20
2019-05-09T18:27:23.088Z,1.20
2019-05-09T18:29:53.167Z,1.30
2019-05-09T18:32:47.952Z,1.20
2019-05-09T18:35:20.432Z,1.40
2019-05-09T18:37:50.669Z,1.10
2019-05-09T18:40:21.191Z,1.40
2019-05-09T18:42:51.141Z,1.30
2019-05-09T18:45:21.859Z,1.60
2019-05-09T18:47:52.175Z,1.57
2019-05-09T18:50:22.219Z,2.07
2019-05-09T18:52:52.246Z,2.00
2019-05-09T18:55:22.605Z,1.80
2019-05-09T18:57:52.516Z,1.90
2019-05-09T19:00:22.812Z,1.70
2019-05-09T19:02:52.859Z,2.10
2019-05-09T19:05:22.943Z,1.93
2019-05-09T19:07:52.838Z,1.27
2019-05-09T19:10:23.193Z,1.80
2019-05-09T19:12:53.085Z,1.23
2019-05-09T19:15:48.190Z,1.63
2019-05-09T19:18:39.847Z,2.00
2019-05-09T19:21:23.356Z,1.90
2019-05-09T19:23:53.575Z,1.63
2019-05-09T19:26:39.196Z,1.80
2019-05-09T19:29:10.327Z,1.50
2019-05-09T19:31:40.579Z,1.97
2019-05-09T19:34:10.549Z,2.20
2019-05-09T19:36:40.653Z,1.80
2019-05-09T19:39:11.377Z,1.90
2019-05-09T19:41:41.750Z,1.80
2019-05-09T19:44:11.647Z,1.60
2019-05-09T19:46:41.706Z,2.17
2019-05-09T19:49:11.663Z,2.00
2019-05-09T19:51:41.825Z,2.10
2019-05-09T19:54:11.775Z,2.33
2019-05-09T19:56:42.674Z,1.63
2019-05-09T19:59:12.585Z,1.70
2019-05-09T20:01:42.500Z,2.03
2019-05-09T20:04:12.411Z,1.87
2019-05-09T20:06:42.344Z,2.23
2019-05-09T20:09:27.113Z,1.53
2019-05-09T20:12:04.099Z,2.90
2019-05-09T20:14:39.972Z,2.40
2019-05-09T20:17:09.933Z,1.70
2019-05-09T20:19:39.839Z,2.00
2019-05-09T20:22:09.764Z,1.90
2019-05-09T20:24:39.820Z,1.40
2019-05-09T20:27:09.888Z,1.73
2019-05-09T20:29:39.790Z,1.40
2019-05-09T20:32:09.902Z,1.30
2019-05-09T20:34:40.028Z,1.27
2019-05-09T20:37:10.392Z,1.40
2019-05-09T20:39:40.509Z,2.00
2019-05-09T20:42:10.714Z,2.37
2019-05-09T20:44:41.021Z,1.50
2019-05-09T20:47:11.543Z,1.50
2019-05-09T20:49:41.997Z,1.30
2019-05-09T20:52:12.134Z,1.97
2019-05-09T20:54:42.558Z,1.50
2019-05-09T20:57:12.725Z,1.70
2019-05-09T20:59:42.829Z,1.37
2019-05-09T21:02:13.273Z,1.40
2019-05-09T21:04:43.425Z,1.80
2019-05-09T21:07:13.945Z,1.33
2019-05-09T21:09:44.012Z,1.47
2019-05-09T21:12:14.409Z,1.10
2019-05-09T21:14:44.508Z,1.53
2019-05-09T21:17:14.712Z,1.13
2019-05-09T21:19:44.787Z,1.80
2019-05-09T21:22:14.889Z,1.50
2019-05-09T21:24:44.970Z,1.63
2019-05-09T21:27:15.114Z,1.70
2019-05-09T21:29:45.331Z,1.60
2019-05-09T21:32:15.595Z,1.80
2019-05-09T21:34:45.472Z,1.57
2019-05-09T21:37:15.514Z,1.40
2019-05-09T21:39:45.488Z,1.27
2019-05-09T21:42:15.597Z,1.80
2019-05-09T21:44:45.564Z,2.23
2019-05-09T21:47:15.477Z,1.57
2019-05-09T21:49:45.384Z,2.10
2019-05-09T21:52:15.767Z,1.80
2019-05-09T21:54:45.652Z,1.60
2019-05-09T21:57:15.611Z,1.40
2019-05-09T21:59:45.719Z,1.50
2019-05-09T22:02:16.153Z,2.47
2019-05-09T22:04:46.176Z,1.83
2019-05-09T22:07:16.299Z,2.20
2019-05-09T22:09:46.392Z,2.00
2019-05-09T22:12:16.753Z,1.60
2019-05-09T22:14:46.855Z,2.00
2019-05-09T22:17:31.318Z,1.90
2019-05-09T22:20:01.590Z,2.50
2019-05-09T22:22:31.669Z,1.87
2019-05-09T22:25:01.644Z,1.80
2019-05-09T22:27:31.567Z,1.97
2019-05-09T22:30:01.464Z,1.43
2019-05-09T22:32:31.401Z,2.10
2019-05-09T22:35:01.349Z,1.80
2019-05-09T22:37:31.261Z,2.40
2019-05-09T22:40:01.214Z,1.87
2019-05-09T22:42:31.306Z,2.00
2019-05-09T22:45:01.393Z,2.60
2019-05-09T22:47:31.547Z,2.20
2019-05-09T22:50:01.504Z,2.10
2019-05-09T22:52:31.526Z,2.37
2019-05-09T22:55:01.582Z,2.30
2019-05-09T22:57:31.522Z,2.17
2019-05-09T23:00:01.702Z,2.50
2019-05-09T23:02:31.802Z,2.17
2019-05-09T23:05:01.741Z,2.40
2019-05-09T23:07:31.697Z,1.90
2019-05-09T23:10:01.647Z,2.10
2019-05-09T23:12:31.559Z,1.87
2019-05-09T23:15:01.524Z,1.70
2019-05-09T23:17:31.434Z,2.07
2019-05-09T23:20:03.267Z,1.97
2019-05-09T23:22:33.510Z,1.87
2019-05-09T23:25:03.346Z,2.03
2019-05-09T23:27:33.357Z,2.37
2019-05-09T23:30:03.488Z,1.83
2019-05-09T23:32:41.342Z,1.80
2019-05-09T23:35:11.390Z,2.13
2019-05-09T23:37:41.415Z,1.93
2019-05-09T23:40:12.577Z,1.60
2019-05-09T23:42:42.485Z,2.30
2019-05-09T23:45:13.258Z,1.70
2019-05-09T23:47:43.172Z,2.00
2019-05-09T23:50:13.294Z,2.13
2019-05-09T23:52:43.256Z,1.80
2019-05-09T23:55:30.748Z,2.07
2019-05-09T23:58:18.107Z,1.70
